Time;durP1;ratioP1;P1;durP2;ratioP2;P2;SDS_P1;SDS_P2;PMS_P1;PMS_P2;Temp;Humidity;BMP_temperature;BMP_pressure;BME280_temperature;BME280_humidity;BME280_pressure;Samples;Min_cycle;Max_cycle;Signal;HPM_P1;HPM_P2
2023/03/30 00:01:26;;;;;;;24.73;5.63;;;11.20;99.90;;;;;;5113674;27;20034;-80
2023/03/30 00:03:53;;;;;;;27.52;5.82;;;11.20;99.90;;;;;;5132149;27;20436;-86
2023/03/30 00:06:21;;;;;;;24.80;5.50;;;11.20;99.90;;;;;;5132178;27;20027;-81
2023/03/30 00:08:48;;;;;;;25.27;5.28;;;11.10;99.90;;;;;;5132367;27;20039;-81
2023/03/30 00:11:16;;;;;;;25.52;5.07;;;11.10;99.90;;;;;;5112993;27;20468;-82
2023/03/30 00:13:43;;;;;;;25.67;5.90;;;11.10;99.90;;;;;;5114234;27;20031;-81
2023/03/30 00:16:11;;;;;;;28.15;5.75;;;11.10;99.90;;;;;;5131608;27;20030;-81
2023/03/30 00:18:41;;;;;;;24.25;5.25;;;11.00;99.90;;;;;;5113582;27;20118;-83
2023/03/30 00:21:09;;;;;;;24.42;5.10;;;11.00;99.90;;;;;;5131539;27;20440;-82
2023/03/30 00:23:36;;;;;;;29.05;5.20;;;11.00;99.90;;;;;;5131670;27;20078;-81
2023/03/30 00:26:01;;;;;;;29.48;5.22;;;11.00;99.90;;;;;;5131005;27;20031;-80
2023/03/30 00:28:29;;;;;;;22.10;5.05;;;11.00;99.90;;;;;;5112860;28;20080;-80
2023/03/30 00:30:55;;;;;;;25.73;5.30;;;11.00;99.90;;;;;;5131049;28;20084;-81
2023/03/30 00:33:21;;;;;;;20.92;4.72;;;11.00;99.90;;;;;;5113162;28;20020;-80
2023/03/30 00:35:54;;;;;;;24.20;4.97;;;11.00;99.90;;;;;;5131305;28;20019;-81
2023/03/30 00:38:20;;;;;;;17.50;4.40;;;11.00;99.90;;;;;;5131914;28;20061;-81
2023/03/30 00:40:54;;;;;;;12.82;3.92;;;11.00;99.90;;;;;;5131693;28;20114;-80
2023/03/30 00:43:21;;;;;;;22.50;4.18;;;11.00;99.90;;;;;;5131857;28;20111;-81
2023/03/30 00:45:47;;;;;;;21.13;5.05;;;11.00;99.90;;;;;;5131832;28;20027;-80
2023/03/30 00:48:23;;;;;;;20.27;4.05;;;11.00;99.90;;;;;;5131144;28;20043;-81
2023/03/30 00:50:58;;;;;;;20.95;4.68;;;11.00;99.90;;;;;;5115135;27;20096;-81
2023/03/30 00:53:29;;;;;;;25.77;5.63;;;11.00;99.90;;;;;;5135559;27;20030;-80
2023/03/30 00:55:56;;;;;;;20.20;4.63;;;11.00;99.90;;;;;;5135717;27;20023;-82
2023/03/30 00:58:23;;;;;;;28.25;5.32;;;10.90;99.90;;;;;;5135722;27;20043;-79
2023/03/30 01:00:49;;;;;;;21.52;6.10;;;10.90;99.90;;;;;;5135584;27;20115;-79
2023/03/30 01:03:27;;;;;;;23.33;5.45;;;11.00;99.90;;;;;;5135070;27;20135;-79
2023/03/30 01:05:55;;;;;;;23.45;5.78;;;11.00;99.90;;;;;;5135371;27;20022;-80
2023/03/30 01:08:22;;;;;;;24.27;5.28;;;11.00;99.90;;;;;;5135168;27;20035;-78
2023/03/30 01:10:50;;;;;;;17.98;4.93;;;10.90;99.90;;;;;;5135225;27;20368;-78
2023/03/30 01:13:17;;;;;;;25.98;4.60;;;11.00;99.90;;;;;;5134540;27;20169;-78
2023/03/30 01:15:51;;;;;;;24.42;4.80;;;10.90;99.90;;;;;;5135159;27;20398;-77
2023/03/30 01:18:26;;;;;;;27.25;5.00;;;10.90;99.90;;;;;;5134511;27;20099;-77
2023/03/30 01:21:10;;;;;;;20.73;4.53;;;10.90;99.90;;;;;;5135190;27;20460;-77
2023/03/30 01:24:14;;;;;;;21.50;4.78;;;10.90;99.90;;;;;;5134384;27;20044;-77
2023/03/30 01:27:03;;;;;;;18.27;4.38;;;10.80;99.90;;;;;;5134382;27;20158;-78
2023/03/30 01:29:29;;;;;;;31.60;4.43;;;10.80;99.90;;;;;;5134546;27;20421;-77
2023/03/30 01:32:17;;;;;;;24.02;4.75;;;10.80;99.90;;;;;;5134784;27;20027;-77
2023/03/30 01:34:57;;;;;;;19.65;4.20;;;10.80;99.90;;;;;;5134667;27;20080;-77
2023/03/30 01:37:57;;;;;;;28.27;4.47;;;10.80;99.90;;;;;;5134116;27;20027;-77
2023/03/30 01:40:34;;;;;;;20.05;3.92;;;10.80;99.90;;;;;;5134164;27;20027;-77
2023/03/30 01:43:11;;;;;;;21.50;4.18;;;10.70;99.90;;;;;;5134148;27;20024;-80
2023/03/30 01:45:45;;;;;;;16.08;4.07;;;10.70;99.90;;;;;;5134306;27;20031;-77
2023/03/30 01:48:17;;;;;;;26.30;4.47;;;10.70;99.90;;;;;;5133782;27;20096;-77
2023/03/30 01:50:50;;;;;;;16.75;3.40;;;10.70;99.90;;;;;;5134437;27;20039;-76
2023/03/30 01:53:31;;;;;;;22.08;4.30;;;10.70;99.90;;;;;;5133973;27;20027;-75
2023/03/30 01:56:21;;;;;;;22.25;3.90;;;10.60;99.90;;;;;;5134389;27;20368;-75
2023/03/30 01:58:58;;;;;;;17.58;3.92;;;10.70;99.90;;;;;;5115876;27;20557;-75
2023/03/30 02:01:26;;;;;;;18.58;3.28;;;10.60;99.90;;;;;;5134117;27;20027;-75
2023/03/30 02:03:56;;;;;;;20.13;3.58;;;10.60;99.90;;;;;;5115449;27;20047;-75
2023/03/30 02:06:45;;;;;;;18.85;4.60;;;10.60;99.90;;;;;;5133822;27;20371;-75
2023/03/30 02:09:16;;;;;;;20.92;4.05;;;10.50;99.90;;;;;;5133544;27;20079;-75
2023/03/30 02:11:49;;;;;;;17.88;3.22;;;10.50;99.90;;;;;;5134335;27;20023;-75
2023/03/30 02:14:16;;;;;;;21.13;3.33;;;10.50;99.90;;;;;;5133592;27;20099;-76
2023/03/30 02:16:52;;;;;;;14.27;2.88;;;10.50;99.90;;;;;;5134066;27;20027;-75
2023/03/30 02:19:18;;;;;;;16.30;2.67;;;10.40;99.90;;;;;;5133670;27;20030;-76
2023/03/30 02:21:45;;;;;;;13.80;2.55;;;10.40;99.90;;;;;;5133713;27;20508;-76
2023/03/30 02:24:18;;;;;;;11.73;2.40;;;10.40;99.90;;;;;;5133240;27;20027;-75
2023/03/30 02:26:51;;;;;;;11.82;2.88;;;10.30;99.90;;;;;;5134055;27;20031;-76
2023/03/30 02:29:19;;;;;;;16.00;3.28;;;10.30;99.90;;;;;;5133202;27;20096;-77
2023/03/30 02:31:46;;;;;;;15.60;2.30;;;10.20;99.90;;;;;;5133638;27;20031;-76
2023/03/30 02:34:32;;;;;;;18.25;3.03;;;10.10;99.90;;;;;;5133515;27;20063;-76
2023/03/30 02:37:20;;;;;;;9.52;2.38;;;10.10;99.90;;;;;;5134001;27;20060;-76
2023/03/30 02:40:11;;;;;;;15.48;3.10;;;10.10;99.90;;;;;;5133681;27;20396;-76
2023/03/30 02:42:37;;;;;;;15.32;3.20;;;10.10;99.90;;;;;;5133883;27;20130;-76
2023/03/30 02:45:21;;;;;;;12.77;2.83;;;10.10;99.90;;;;;;5133218;27;20094;-80
2023/03/30 02:48:03;;;;;;;13.32;2.75;;;10.10;99.90;;;;;;5133534;27;20026;-76
2023/03/30 02:50:29;;;;;;;18.52;3.10;;;10.00;99.90;;;;;;5133849;27;20049;-77
2023/03/30 02:53:22;;;;;;;20.02;3.42;;;10.00;99.90;;;;;;5133350;27;20393;-77
2023/03/30 02:56:10;;;;;;;;;;;10.00;99.90;;;;;;5134196;27;20101;-76
2023/03/30 02:58:42;;;;;;;16.02;2.80;;;10.00;99.90;;;;;;5133635;27;19904;-76
2023/03/30 03:01:14;;;;;;;9.23;2.13;;;10.00;99.90;;;;;;5133014;27;20023;-76
2023/03/30 03:03:46;;;;;;;14.75;2.40;;;9.90;99.90;;;;;;5133638;27;20429;-76
2023/03/30 03:06:13;;;;;;;17.58;3.17;;;9.90;99.90;;;;;;5132375;27;20456;-76
2023/03/30 03:08:42;;;;;;;14.90;2.40;;;9.90;99.90;;;;;;5133043;27;20042;-77
2023/03/30 03:11:08;;;;;;;12.68;2.78;;;9.90;99.90;;;;;;5132643;27;20027;-77
2023/03/30 03:13:36;;;;;;;13.23;2.70;;;9.90;99.90;;;;;;5132383;27;20442;-75
2023/03/30 03:16:06;;;;;;;13.85;3.30;;;9.90;99.90;;;;;;5132990;27;20019;-75
2023/03/30 03:18:33;;;;;;;19.17;3.50;;;9.80;99.90;;;;;;5132923;27;20027;-76
2023/03/30 03:21:00;;;;;;;15.75;3.25;;;9.80;99.90;;;;;;5132517;27;20038;-75
2023/03/30 03:23:26;;;;;;;17.88;3.40;;;9.80;99.90;;;;;;5132090;27;20047;-77
2023/03/30 03:25:51;;;;;;;17.88;3.00;;;9.70;99.90;;;;;;5132224;27;20033;-76
2023/03/30 03:28:17;;;;;;;16.13;2.88;;;9.70;99.90;;;;;;5131947;27;20508;-77
2023/03/30 03:30:43;;;;;;;18.77;3.38;;;9.70;99.90;;;;;;5132581;27;20062;-77
2023/03/30 03:33:09;;;;;;;20.13;3.60;;;9.80;99.90;;;;;;5131691;27;20027;-77
2023/03/30 03:35:38;;;;;;;17.80;3.42;;;9.80;99.90;;;;;;5132571;27;20016;-77
2023/03/30 03:38:05;;;;;;;19.80;3.22;;;9.80;99.90;;;;;;5132408;27;20106;-77
2023/03/30 03:40:30;;;;;;;17.50;3.40;;;9.80;99.90;;;;;;5131856;27;20083;-76
2023/03/30 03:42:56;;;;;;;17.05;3.17;;;9.70;99.90;;;;;;5132379;27;20028;-76
2023/03/30 03:45:22;;;;;;;11.65;3.13;;;9.70;99.90;;;;;;5131780;27;20034;-77
2023/03/30 03:47:50;;;;;;;16.58;3.15;;;9.80;99.90;;;;;;5132086;27;20056;-77
2023/03/30 03:50:16;;;;;;;15.88;3.08;;;9.80;99.90;;;;;;5131574;27;20031;-77
2023/03/30 03:52:42;;;;;;;15.73;2.53;;;9.80;99.90;;;;;;5113735;27;20034;-76
2023/03/30 03:55:08;;;;;;;15.32;3.22;;;9.80;99.90;;;;;;5131997;27;20034;-80
2023/03/30 03:57:33;;;;;;;21.67;3.03;;;9.80;99.90;;;;;;5131822;27;20052;-75
2023/03/30 03:59:59;;;;;;;16.05;3.35;;;9.80;99.90;;;;;;5131776;27;20421;-75
2023/03/30 04:02:26;;;;;;;16.20;2.90;;;9.80;99.90;;;;;;5131398;27;20023;-76
2023/03/30 04:04:52;;;;;;;13.63;2.63;;;9.80;99.90;;;;;;5113155;27;20028;-75
2023/03/30 04:07:18;;;;;;;13.65;2.70;;;9.80;99.90;;;;;;5130800;27;20034;-76
2023/03/30 04:09:44;;;;;;;16.42;3.33;;;9.70;99.90;;;;;;5131790;27;20023;-76
2023/03/30 04:12:10;;;;;;;14.68;3.25;;;9.70;99.90;;;;;;5131090;27;20050;-79
2023/03/30 04:14:36;;;;;;;19.63;3.00;;;9.70;99.90;;;;;;5131825;27;20064;-76
2023/03/30 04:17:02;;;;;;;12.82;2.70;;;9.70;99.90;;;;;;5131678;27;20024;-75
2023/03/30 04:19:30;;;;;;;19.95;3.00;;;9.60;99.90;;;;;;5131063;27;20237;-76
2023/03/30 04:21:57;;;;;;;17.95;3.47;;;9.60;99.90;;;;;;5131483;27;20024;-75
2023/03/30 04:24:28;;;;;;;16.33;3.42;;;9.60;99.90;;;;;;5130750;27;20027;-75
2023/03/30 04:26:56;;;;;;;18.40;2.83;;;9.60;99.90;;;;;;5131101;27;20028;-76
2023/03/30 04:29:22;;;;;;;19.58;3.08;;;9.60;99.90;;;;;;5130852;27;20477;-75
2023/03/30 04:31:49;;;;;;;16.15;3.55;;;9.60;99.90;;;;;;5131376;28;20019;-75
2023/03/30 04:34:20;;;;;;;16.58;3.00;;;9.60;99.90;;;;;;5130965;28;20023;-75
2023/03/30 04:36:49;;;;;;;22.95;3.15;;;9.60;99.90;;;;;;5131544;28;20125;-76
2023/03/30 04:39:16;;;;;;;15.95;3.45;;;9.60;99.90;;;;;;5130621;28;20058;-77
2023/03/30 04:41:44;;;;;;;14.18;3.47;;;9.60;99.90;;;;;;5131469;28;20023;-76
2023/03/30 04:44:10;;;;;;;14.73;2.72;;;9.60;99.90;;;;;;5130872;28;20128;-78
2023/03/30 04:46:36;;;;;;;22.27;3.97;;;9.60;99.90;;;;;;5131403;28;20114;-76
2023/03/30 04:49:03;;;;;;;16.20;2.88;;;9.50;99.90;;;;;;5130782;28;20035;-75
2023/03/30 04:51:29;;;;;;;10.63;2.83;;;9.50;99.90;;;;;;5130677;28;20035;-76
2023/03/30 04:53:55;;;;;;;16.33;3.63;;;9.50;99.90;;;;;;5131178;28;20381;-76
2023/03/30 04:56:21;;;;;;;16.10;3.53;;;9.50;99.90;;;;;;5130510;28;20031;-76
2023/03/30 04:58:46;;;;;;;22.65;4.13;;;9.50;99.90;;;;;;5131150;28;20023;-76
2023/03/30 05:01:13;;;;;;;15.40;3.72;;;9.50;99.90;;;;;;5130790;28;20019;-80
2023/03/30 05:03:39;;;;;;;18.13;3.50;;;9.50;99.90;;;;;;5130621;28;20058;-77
2023/03/30 05:06:05;;;;;;;19.83;3.78;;;9.50;99.90;;;;;;5131257;28;20031;-76
2023/03/30 05:08:32;;;;;;;23.40;3.95;;;9.50;99.90;;;;;;5130372;28;20084;-77
2023/03/30 05:11:01;;;;;;;16.23;3.78;;;9.60;99.90;;;;;;5131168;28;20083;-77
2023/03/30 05:13:27;;;;;;;22.45;3.28;;;9.50;99.90;;;;;;5130405;28;20115;-76
2023/03/30 05:15:54;;;;;;;23.98;4.05;;;9.60;99.90;;;;;;5130822;28;20030;-76
2023/03/30 05:18:20;;;;;;;20.65;3.63;;;9.60;99.90;;;;;;5130327;28;20028;-77
2023/03/30 05:20:46;;;;;;;17.73;3.22;;;9.60;99.90;;;;;;5130722;28;20025;-76
2023/03/30 05:23:11;;;;;;;14.02;4.28;;;9.60;99.90;;;;;;5130513;28;20054;-77
2023/03/30 05:25:37;;;;;;;21.35;3.58;;;9.60;99.90;;;;;;5130803;28;20027;-77
2023/03/30 05:28:03;;;;;;;29.88;4.20;;;9.60;99.90;;;;;;5130520;28;20110;-77
2023/03/30 05:30:29;;;;;;;19.08;3.40;;;9.60;99.90;;;;;;5111949;28;20027;-77
2023/03/30 05:32:55;;;;;;;22.73;3.70;;;9.60;99.90;;;;;;5130544;28;20102;-77
2023/03/30 05:35:21;;;;;;;22.27;3.80;;;9.60;99.90;;;;;;5130123;28;20023;-76
2023/03/30 05:37:48;;;;;;;27.67;5.53;;;9.60;99.90;;;;;;5132345;27;20059;-77
2023/03/30 05:40:14;;;;;;;21.50;3.75;;;9.60;99.90;;;;;;5134784;27;20114;-79
2023/03/30 05:42:40;;;;;;;19.92;3.88;;;9.60;99.90;;;;;;5134714;27;20054;-76
2023/03/30 05:45:07;;;;;;;22.00;4.03;;;9.60;99.90;;;;;;5135292;27;20072;-76
2023/03/30 05:47:34;;;;;;;19.75;3.95;;;9.60;99.90;;;;;;5134169;27;20099;-76
2023/03/30 05:50:01;;;;;;;16.52;3.40;;;9.50;99.90;;;;;;5134924;27;20062;-75
2023/03/30 05:52:27;;;;;;;18.35;4.30;;;9.50;99.90;;;;;;5134592;27;20030;-75
2023/03/30 05:54:52;;;;;;;24.75;3.65;;;9.50;99.90;;;;;;5134497;27;20031;-75
2023/03/30 05:57:18;;;;;;;17.63;4.55;;;9.50;99.90;;;;;;5133944;27;20050;-79
2023/03/30 05:59:44;;;;;;;15.43;3.40;;;9.60;99.90;;;;;;5134200;27;20483;-75
2023/03/30 06:02:11;;;;;;;21.40;3.88;;;9.60;99.90;;;;;;5134451;27;20070;-75
2023/03/30 06:04:38;;;;;;;17.65;3.78;;;9.60;99.90;;;;;;5133599;27;20027;-77
2023/03/30 06:07:05;;;;;;;22.77;4.20;;;9.60;99.90;;;;;;5133892;27;20401;-77
2023/03/30 06:09:31;;;;;;;27.45;4.00;;;9.60;99.90;;;;;;5133254;27;20043;-75
2023/03/30 06:11:57;;;;;;;21.13;3.53;;;9.60;99.90;;;;;;5098546;27;20030;-76
2023/03/30 06:14:23;;;;;;;22.70;4.10;;;9.60;99.90;;;;;;5133416;27;20104;-77
2023/03/30 06:16:49;;;;;;;22.90;3.63;;;9.60;99.90;;;;;;5114799;27;20031;-76
2023/03/30 06:19:15;;;;;;;21.02;3.15;;;9.60;99.90;;;;;;5133834;27;20374;-75
2023/03/30 06:21:41;;;;;;;17.10;3.47;;;9.60;99.90;;;;;;5133297;27;20026;-77
2023/03/30 06:24:06;;;;;;;16.05;3.38;;;9.70;99.90;;;;;;5134019;27;20075;-77
2023/03/30 06:26:32;;;;;;;18.17;5.22;;;9.70;99.90;;;;;;5114768;27;20023;-77
2023/03/30 06:28:58;;;;;;;15.35;3.75;;;9.70;99.90;;;;;;5134392;27;20370;-76
2023/03/30 06:31:24;;;;;;;19.23;3.17;;;9.80;99.90;;;;;;5132837;27;20027;-76
2023/03/30 06:33:50;;;;;;;21.67;3.55;;;9.80;99.90;;;;;;5133419;27;20078;-77
2023/03/30 06:36:15;;;;;;;17.77;3.35;;;9.90;99.90;;;;;;5114922;27;20505;-76
2023/03/30 06:38:44;;;;;;;20.10;4.07;;;10.00;99.90;;;;;;5132562;27;20341;-76
2023/03/30 06:41:11;;;;;;;18.10;3.35;;;10.10;99.90;;;;;;5133367;27;20019;-75
2023/03/30 06:43:38;;;;;;;12.85;3.25;;;10.20;99.90;;;;;;5132111;27;20027;-76
2023/03/30 06:46:04;;;;;;;17.10;3.63;;;10.20;99.90;;;;;;5133078;27;20080;-76
2023/03/30 06:48:30;;;;;;;8.00;2.78;;;10.30;99.90;;;;;;5131980;27;20126;-76
2023/03/30 06:50:56;;;;;;;13.73;2.85;;;10.40;99.90;;;;;;5132789;27;20118;-76
2023/03/30 06:53:23;;;;;;;11.48;2.28;;;10.40;99.90;;;;;;5132506;27;20122;-76
2023/03/30 06:55:53;;;;;;;11.60;3.38;;;10.50;99.90;;;;;;5114363;27;20052;-75
2023/03/30 06:58:20;;;;;;;16.48;2.75;;;10.50;99.90;;;;;;5132652;27;20082;-81
2023/03/30 07:00:46;;;;;;;10.00;2.22;;;10.50;99.90;;;;;;5113584;27;20027;-75
2023/03/30 07:03:12;;;;;;;11.57;2.08;;;10.60;99.90;;;;;;5132907;27;20106;-75
2023/03/30 07:05:38;;;;;;;11.32;1.90;;;10.60;99.90;;;;;;5132140;27;20111;-76
2023/03/30 07:08:05;;;;;;;12.30;3.08;;;10.60;99.90;;;;;;5114092;27;20079;-75
2023/03/30 07:10:32;;;;;;;6.20;1.83;;;10.70;99.90;;;;;;5131616;27;20436;-75
2023/03/30 07:12:58;;;;;;;8.35;2.20;;;10.80;99.90;;;;;;5132284;27;20057;-75
2023/03/30 07:15:23;;;;;;;8.18;1.75;;;10.80;99.90;;;;;;5131956;27;20081;-76
2023/03/30 07:17:50;;;;;;;5.93;1.40;;;11.00;99.90;;;;;;5132572;27;20533;-75
2023/03/30 07:20:16;;;;;;;7.28;1.60;;;11.10;99.90;;;;;;5132225;27;20027;-76
2023/03/30 07:22:42;;;;;;;9.80;1.70;;;11.20;99.90;;;;;;5131612;27;20047;-75
2023/03/30 07:25:09;;;;;;;6.07;1.67;;;11.20;99.90;;;;;;5132268;27;20030;-76
2023/03/30 07:27:36;;;;;;;5.20;1.30;;;11.30;99.90;;;;;;5131441;27;20098;-76
2023/03/30 07:30:06;;;;;;;9.32;2.28;;;11.30;99.90;;;;;;5131964;27;20035;-75
2023/03/30 07:32:32;;;;;;;5.55;1.45;;;11.40;99.90;;;;;;5131724;27;20533;-75
2023/03/30 07:34:58;;;;;;;6.15;1.35;;;11.40;99.90;;;;;;5132276;27;20023;-77
2023/03/30 07:37:23;;;;;;;4.13;1.30;;;11.40;99.90;;;;;;5131757;27;20031;-79
2023/03/30 07:39:49;;;;;;;7.57;1.25;;;11.40;99.90;;;;;;5132091;27;20487;-75
2023/03/30 07:42:15;;;;;;;5.75;1.45;;;11.50;99.90;;;;;;5132220;27;20038;-75
2023/03/30 07:44:41;;;;;;;6.68;1.63;;;11.50;99.90;;;;;;5112898;27;20035;-75
2023/03/30 07:47:07;;;;;;;5.05;1.23;;;11.50;99.90;;;;;;5131550;27;20027;-76
2023/03/30 07:49:33;;;;;;;4.05;1.20;;;11.60;99.90;;;;;;5131086;27;20353;-73
2023/03/30 07:51:58;;;;;;;7.40;1.52;;;11.60;99.90;;;;;;5132114;27;20098;-76
2023/03/30 07:54:24;;;;;;;4.28;1.08;;;11.60;99.90;;;;;;5113159;27;20069;-80
2023/03/30 07:56:51;;;;;;;6.07;1.10;;;11.70;99.90;;;;;;5131973;27;20486;-76
2023/03/30 07:59:22;;;;;;;8.20;1.42;;;11.70;99.90;;;;;;5132064;27;20038;-75
2023/03/30 08:01:53;;;;;;;4.95;1.20;;;11.70;99.90;;;;;;5130742;27;20069;-75
2023/03/30 08:04:20;;;;;;;7.75;1.40;;;11.70;99.90;;;;;;5131616;27;20030;-75
2023/03/30 08:06:46;;;;;;;5.00;1.73;;;11.80;99.90;;;;;;5112611;27;20052;-76
2023/03/30 08:09:12;;;;;;;8.82;1.70;;;11.80;99.90;;;;;;5131776;27;20039;-76
2023/03/30 08:11:38;;;;;;;6.25;1.40;;;11.80;99.90;;;;;;5130914;27;20476;-76
2023/03/30 08:14:04;;;;;;;9.23;2.13;;;11.90;99.90;;;;;;5131492;27;20380;-76
2023/03/30 08:16:31;;;;;;;6.30;1.35;;;12.10;99.90;;;;;;5130930;27;20454;-77
2023/03/30 08:18:56;;;;;;;4.68;1.55;;;12.30;99.90;;;;;;5131430;27;20035;-76
2023/03/30 08:21:25;;;;;;;4.75;1.42;;;12.40;99.90;;;;;;5131463;27;20031;-76
2023/03/30 08:23:56;;;;;;;10.38;1.88;;;12.50;99.90;;;;;;5112455;28;20116;-76
2023/03/30 08:26:22;;;;;;;7.75;2.05;;;12.50;99.90;;;;;;5131642;27;20027;-77
2023/03/30 08:28:48;;;;;;;7.28;1.80;;;12.60;99.90;;;;;;5130220;27;20802;-76
2023/03/30 08:31:17;;;;;;;8.65;2.13;;;12.60;99.90;;;;;;5131339;27;20027;-76
2023/03/30 08:33:43;;;;;;;5.32;1.35;;;12.80;99.90;;;;;;5130907;28;20039;-76
2023/03/30 08:36:09;;;;;;;6.57;1.48;;;12.90;99.90;;;;;;5131324;28;20035;-76
2023/03/30 08:38:35;;;;;;;6.55;1.30;;;12.90;99.90;;;;;;5130713;28;20118;-77
2023/03/30 08:41:12;;;;;;;6.90;1.50;;;12.90;99.90;;;;;;5131263;28;20059;-77
2023/03/30 08:43:55;;;;;;;5.32;1.88;;;13.00;99.90;;;;;;5131065;28;20030;-77
2023/03/30 08:46:21;;;;;;;10.18;1.88;;;13.10;99.90;;;;;;5131746;28;20444;-77
2023/03/30 08:48:48;;;;;;;8.73;2.10;;;13.20;99.90;;;;;;5112229;28;20090;-77
2023/03/30 08:51:21;;;;;;;9.32;1.50;;;13.30;99.90;;;;;;5131338;28;20046;-77
2023/03/30 08:53:58;;;;;;;7.60;1.55;;;13.40;99.90;;;;;;5130432;28;20769;-76
2023/03/30 08:56:31;;;;;;;9.60;2.10;;;13.50;99.90;;;;;;5131015;28;20106;-76
2023/03/30 08:59:27;;;;;;;12.38;2.60;;;13.40;99.90;;;;;;5131255;28;20027;-75
2023/03/30 09:02:00;;;;;;;10.40;2.60;;;13.40;99.90;;;;;;5130481;28;20031;-76
2023/03/30 09:04:40;;;;;;;10.73;2.63;;;13.20;99.90;;;;;;5130980;28;20464;-76
2023/03/30 09:07:15;;;;;;;11.00;1.85;;;13.20;99.90;;;;;;5131320;28;20503;-75
2023/03/30 09:09:44;;;;;;;8.43;2.58;;;13.30;99.90;;;;;;5130590;28;20182;-75
2023/03/30 09:12:22;;;;;;;9.13;2.03;;;13.30;99.90;;;;;;5131607;27;20341;-77
2023/03/30 09:14:53;;;;;;;12.38;2.58;;;13.40;99.90;;;;;;5134621;27;20106;-76
2023/03/30 09:17:27;;;;;;;11.60;2.63;;;13.30;99.90;;;;;;5116669;27;20357;-75
2023/03/30 09:19:55;;;;;;;10.85;2.47;;;13.30;99.90;;;;;;5135055;27;20042;-76
2023/03/30 09:22:28;;;;;;;11.45;2.00;;;13.60;99.90;;;;;;5134833;27;20046;-76
2023/03/30 09:24:54;;;;;;;11.77;2.25;;;13.70;99.90;;;;;;5134508;27;20031;-76
2023/03/30 09:27:57;;;;;;;11.77;2.30;;;13.60;99.90;;;;;;5134996;27;20023;-76
2023/03/30 09:30:50;;;;;;;13.52;2.90;;;13.80;99.90;;;;;;5134975;27;20106;-75
2023/03/30 09:33:34;;;;;;;15.50;2.70;;;13.80;99.90;;;;;;5134444;27;20046;-75
2023/03/30 09:36:21;;;;;;;9.50;1.60;;;13.90;99.90;;;;;;5134759;27;20019;-76
2023/03/30 09:38:48;;;;;;;12.52;2.58;;;14.00;99.90;;;;;;5133936;27;20019;-75
2023/03/30 09:41:32;;;;;;;14.30;2.55;;;14.20;99.90;;;;;;5134358;27;20078;-75
2023/03/30 09:43:59;;;;;;;9.57;2.15;;;14.40;99.90;;;;;;5134262;27;20027;-75
2023/03/30 09:46:24;;;;;;;13.25;2.58;;;14.50;99.90;;;;;;5134650;27;20019;-75
2023/03/30 09:48:51;;;;;;;9.10;2.38;;;14.60;99.90;;;;;;5133874;27;20478;-75
2023/03/30 09:51:26;;;;;;;15.13;2.28;;;14.60;99.90;;;;;;5134659;27;20206;-77
2023/03/30 09:54:02;;;;;;;14.52;2.75;;;14.60;99.90;;;;;;5133692;27;20693;-77
2023/03/30 09:56:45;;;;;;;71.63;8.60;;;14.60;99.90;;;;;;5134421;27;20023;-76
2023/03/30 09:59:35;;;;;;;17.23;3.25;;;14.50;99.90;;;;;;5134031;27;20114;-77
2023/03/30 10:02:15;;;;;;;13.82;1.95;;;14.60;99.90;;;;;;5133397;27;20114;-77
2023/03/30 10:05:15;;;;;;;11.68;2.28;;;14.60;99.90;;;;;;5133676;27;20055;-77
2023/03/30 10:07:42;;;;;;;12.68;2.80;;;14.60;99.90;;;;;;5133605;27;20023;-77
2023/03/30 10:10:36;;;;;;;14.40;2.20;;;14.60;99.90;;;;;;5133985;27;20037;-76
2023/03/30 10:13:13;;;;;;;16.23;3.03;;;14.70;99.90;;;;;;5133544;27;20057;-77
2023/03/30 10:15:44;;;;;;;11.25;2.42;;;14.90;99.90;;;;;;5133621;27;20023;-77
2023/03/30 10:18:45;;;;;;;11.20;2.60;;;14.80;99.90;;;;;;5133818;27;20087;-77
2023/03/30 10:21:14;;;;;;;12.23;2.67;;;14.70;99.90;;;;;;5133821;27;20070;-76
2023/03/30 10:23:43;;;;;;;12.20;2.45;;;14.60;99.90;;;;;;5132258;27;20138;-76
2023/03/30 10:26:14;;;;;;;13.35;3.03;;;14.50;99.90;;;;;;5133681;27;20055;-76
2023/03/30 10:29:10;;;;;;;16.85;2.78;;;14.50;99.90;;;;;;5132830;27;20047;-77
2023/03/30 10:31:39;;;;;;;10.35;2.22;;;14.40;99.90;;;;;;5133119;27;20102;-80
2023/03/30 10:34:29;;;;;;;10.00;2.03;;;14.40;99.90;;;;;;5133214;27;20079;-76
2023/03/30 10:36:56;;;;;;;8.45;2.28;;;14.40;99.90;;;;;;5132913;27;20463;-76
2023/03/30 10:39:24;;;;;;;11.52;2.42;;;14.30;99.90;;;;;;5133720;27;20141;-76
2023/03/30 10:41:53;;;;;;;8.50;2.03;;;14.10;99.90;;;;;;5132457;27;20117;-76
2023/03/30 10:44:19;;;;;;;13.82;2.45;;;14.00;99.90;;;;;;5133273;27;20106;-76
2023/03/30 10:46:46;;;;;;;6.90;1.73;;;14.00;99.90;;;;;;5132757;27;20321;-76
2023/03/30 10:49:20;;;;;;;13.23;2.42;;;14.00;99.90;;;;;;5114390;27;20027;-76
2023/03/30 10:52:11;;;;;;;11.00;2.03;;;14.00;99.90;;;;;;5132651;27;20448;-76
2023/03/30 10:54:46;;;;;;;12.40;2.47;;;14.00;99.90;;;;;;5086414;27;20040;-81
2023/03/30 10:57:15;;;;;;;14.10;2.95;;;14.00;99.90;;;;;;5133206;27;20428;-76
2023/03/30 11:00:05;;;;;;;11.00;1.88;;;13.90;99.90;;;;;;5132552;27;20038;-77
2023/03/30 11:02:53;;;;;;;8.75;1.60;;;14.00;99.90;;;;;;5132705;27;20166;-76
2023/03/30 11:05:29;;;;;;;12.50;2.40;;;14.10;99.90;;;;;;5132782;27;20038;-76
2023/03/30 11:08:05;;;;;;;10.10;2.40;;;14.40;99.90;;;;;;5115022;27;20104;-76
2023/03/30 11:10:40;;;;;;;9.93;2.17;;;14.70;99.90;;;;;;5132809;27;20035;-76
2023/03/30 11:13:13;;;;;;;6.63;1.52;;;15.00;99.90;;;;;;5132762;27;20106;-76
2023/03/30 11:15:39;;;;;;;;;;;15.30;99.90;;;;;;5132862;27;20035;-81
2023/03/30 11:18:09;;;;;;;5.85;1.38;;;15.30;99.90;;;;;;5132339;27;19903;-76
2023/03/30 11:20:44;;;;;;;7.75;2.38;;;15.50;99.90;;;;;;5132807;27;20437;-76
2023/03/30 11:23:52;;;;;;;8.73;1.80;;;15.50;99.90;;;;;;5132409;27;20043;-76
2023/03/30 11:26:34;;;;;;;4.90;1.20;;;15.60;99.90;;;;;;5132458;27;20110;-76
2023/03/30 11:28:59;;;;;;;6.38;1.60;;;15.60;99.90;;;;;;5113583;27;20110;-77
2023/03/30 11:31:41;;;;;;;4.80;1.30;;;15.70;99.90;;;;;;5132315;27;20054;-76
2023/03/30 11:34:22;;;;;;;7.47;1.55;;;15.70;99.90;;;;;;5133665;27;20031;-76
2023/03/30 11:36:54;;;;;;;7.30;1.70;;;15.70;99.90;;;;;;5133017;27;20023;-77
2023/03/30 11:39:28;;;;;;;9.35;2.03;;;15.60;99.90;;;;;;5134779;27;20087;-77
2023/03/30 11:42:15;;;;;;;9.23;1.73;;;15.60;99.90;;;;;;5133854;27;20035;-77
2023/03/30 11:44:41;;;;;;;5.80;1.70;;;15.60;99.90;;;;;;5133427;27;20035;-81
2023/03/30 11:47:42;;;;;;;9.45;1.70;;;15.60;99.90;;;;;;5131907;27;20031;-77
2023/03/30 11:50:22;;;;;;;5.90;1.40;;;15.60;99.90;;;;;;5109130;27;20071;-77
2023/03/30 11:53:31;;;;;;;6.88;1.73;;;15.60;99.90;;;;;;5131689;27;20141;-75
2023/03/30 11:56:12;;;;;;;9.90;1.60;;;15.70;99.90;;;;;;5131281;27;20023;-76
2023/03/30 11:59:03;;;;;;;2.92;1.15;;;15.70;99.90;;;;;;5131806;27;20035;-75
2023/03/30 12:01:51;;;;;;;5.28;1.10;;;15.90;99.90;;;;;;5131542;27;20030;-76
2023/03/30 12:04:26;;;;;;;5.63;1.35;;;16.00;99.90;;;;;;5132248;27;20028;-76
2023/03/30 12:06:57;;;;;;;4.53;1.20;;;16.20;99.90;;;;;;5131455;27;20023;-77
2023/03/30 12:09:57;;;;;;;6.30;1.48;;;16.30;99.90;;;;;;5131426;27;20027;-78
2023/03/30 12:12:41;;;;;;;7.93;1.65;;;16.40;99.90;;;;;;5074953;27;20039;-76
2023/03/30 12:15:44;;;;;;;11.20;2.03;;;16.60;99.90;;;;;;5131084;27;20106;-76
2023/03/30 12:18:10;;;;;;;;;;;16.60;99.90;;;;;;5132397;27;20060;-76
2023/03/30 12:20:54;;;;;;;5.97;1.63;;;16.60;99.90;;;;;;5131534;27;20343;-77
2023/03/30 12:23:44;;;;;;;11.63;2.28;;;16.70;99.90;;;;;;5130968;27;20054;-76
2023/03/30 12:26:31;;;;;;;8.07;1.73;;;16.80;99.90;;;;;;5131008;27;20476;-76
2023/03/30 12:29:15;;;;;;;7.35;2.00;;;16.80;99.90;;;;;;5130662;27;20487;-77
2023/03/30 12:31:49;;;;;;;5.80;1.63;;;16.80;99.90;;;;;;5131356;27;20102;-76
2023/03/30 12:34:16;;;;;;;6.68;1.67;;;16.60;99.90;;;;;;5112510;28;20478;-76
2023/03/30 12:36:51;;;;;;;11.48;2.50;;;16.40;99.90;;;;;;5131558;28;20023;-76
2023/03/30 12:39:43;;;;;;;6.63;2.08;;;16.20;99.90;;;;;;5131207;28;20023;-76
2023/03/30 12:42:35;;;;;;;9.70;1.83;;;16.00;99.90;;;;;;5131121;28;20060;-76
2023/03/30 12:45:26;;;;;;;8.48;2.00;;;15.90;99.90;;;;;;5130647;28;20027;-76
2023/03/30 12:47:55;;;;;;;11.40;2.47;;;15.90;99.90;;;;;;5134316;27;20146;-77
2023/03/30 12:50:29;;;;;;;12.55;2.40;;;15.90;99.90;;;;;;5134998;27;20409;-76
2023/03/30 12:53:22;;;;;;;8.88;1.65;;;15.90;99.90;;;;;;5134471;27;20027;-77
2023/03/30 12:56:05;;;;;;;;;;;15.80;99.90;;;;;;5135597;27;20031;-78
2023/03/30 12:59:00;;;;;;;12.00;2.20;;;15.80;99.90;;;;;;5116605;27;19904;-77
2023/03/30 13:01:42;;;;;;;5.85;1.70;;;15.80;99.90;;;;;;5044165;27;20087;-77
2023/03/30 13:04:11;;;;;;;6.25;1.80;;;15.70;99.90;;;;;;5134282;27;20130;-77
2023/03/30 13:06:46;;;;;;;7.70;1.80;;;15.60;99.90;;;;;;5134990;27;20134;-77
2023/03/30 13:09:15;;;;;;;7.18;2.08;;;15.60;99.90;;;;;;5134754;27;20027;-76